Avoca, Wisconsin
Current Conditions -  °F | °C
As of 3:56 AM on Friday 31 Oct 2014 (Local Time) from KLNR Reporting Station
Overcast Overcast  
Wind Chill: 28°   Ceiling: 3900
Heat Index: 37°   Visibility: 9mi
Dew Point: 23°   Wind: 14mph
Humidity: 57%   Direction: 310°NW
Pressure: 30.21"   Gusts: NA
Location:  43.18°N, 90.32°W
Report Text: KLNR 310856Z AUTO 31012KT 9SM OVC039 03/M05 A3021 RMK AO2 PK WND 33027/0837 RAE39SNB39E53 SLP228 P0000 60000 T00281050 51028
Loading
Personal Weather Stations






























Interactive Weather Map
Tropical Storm Tracking
New forecast layout! Learn more

10-Day Weather Forecast

Advertisements
Track Severe Weather on mobile